createdAt,value
2018-05-16T00:02:16.096Z,4.60
2018-05-16T00:04:43.928Z,4.80
2018-05-16T00:07:11.567Z,4.70
2018-05-16T00:09:39.981Z,4.80
2018-05-16T00:12:07.965Z,4.70
2018-05-16T00:14:35.691Z,4.60
2018-05-16T00:17:04.093Z,4.77
2018-05-16T00:19:32.179Z,5.53
2018-05-16T00:21:59.828Z,4.87
2018-05-16T00:24:27.707Z,5.70
2018-05-16T00:26:55.556Z,5.00
2018-05-16T00:29:23.194Z,4.90
2018-05-16T00:31:51.822Z,4.90
2018-05-16T00:34:19.528Z,5.17
2018-05-16T00:36:48.172Z,4.80
2018-05-16T00:39:16.036Z,4.93
2018-05-16T00:41:43.985Z,4.70
2018-05-16T00:44:11.772Z,4.50
2018-05-16T00:46:39.635Z,4.77
2018-05-16T00:49:07.598Z,4.30
2018-05-16T00:51:35.280Z,4.67
2018-05-16T00:54:02.921Z,3.93
2018-05-16T00:56:30.808Z,3.90
2018-05-16T00:58:58.664Z,3.87
2018-05-16T01:01:26.309Z,3.63
2018-05-16T01:03:54.012Z,4.50
2018-05-16T01:06:21.657Z,4.00
2018-05-16T01:08:49.292Z,4.07
2018-05-16T01:11:17.353Z,4.40
2018-05-16T01:13:45.247Z,4.33
2018-05-16T01:16:13.114Z,3.80
2018-05-16T01:18:40.808Z,4.37
2018-05-16T01:21:08.642Z,4.13
2018-05-16T01:23:36.504Z,4.47
2018-05-16T01:26:04.380Z,3.93
2018-05-16T01:28:32.032Z,4.10
2018-05-16T01:30:59.676Z,4.40
2018-05-16T01:33:27.537Z,4.23
2018-05-16T01:35:55.321Z,4.53
2018-05-16T01:38:23.086Z,4.60
2018-05-16T01:40:51.058Z,4.60
2018-05-16T01:43:18.706Z,4.93
2018-05-16T01:45:46.487Z,4.67
2018-05-16T01:48:14.558Z,4.60
2018-05-16T01:50:42.200Z,5.00
2018-05-16T01:53:09.838Z,4.60
2018-05-16T01:55:38.285Z,4.50
2018-05-16T01:58:06.513Z,4.57
2018-05-16T02:00:34.300Z,4.80
2018-05-16T02:03:02.152Z,4.03
2018-05-16T02:05:29.838Z,4.63
2018-05-16T02:07:59.128Z,5.30
2018-05-16T02:10:26.817Z,4.77
2018-05-16T02:12:54.656Z,5.03
2018-05-16T02:15:22.537Z,4.73
2018-05-16T02:17:50.229Z,5.07
2018-05-16T02:20:18.641Z,5.17
2018-05-16T02:22:46.276Z,4.73
2018-05-16T02:25:14.725Z,4.67
2018-05-16T02:27:43.129Z,5.10
2018-05-16T02:30:11.608Z,4.93
2018-05-16T02:32:40.186Z,4.40
2018-05-16T02:35:07.911Z,4.10
2018-05-16T02:37:35.544Z,4.60
2018-05-16T02:40:03.420Z,4.80
2018-05-16T02:42:31.062Z,4.60
2018-05-16T02:44:58.701Z,4.30
2018-05-16T02:47:26.550Z,4.83
2018-05-16T02:49:54.192Z,4.47
2018-05-16T02:52:21.833Z,4.67
2018-05-16T02:54:49.521Z,4.27
2018-05-16T02:57:17.372Z,4.73
2018-05-16T02:59:45.084Z,4.80
2018-05-16T03:02:12.877Z,5.07
2018-05-16T03:04:40.516Z,4.30
2018-05-16T03:07:08.926Z,5.60
2018-05-16T03:09:36.611Z,4.73
2018-05-16T03:12:04.251Z,4.90
2018-05-16T03:14:32.028Z,4.80
2018-05-16T03:17:00.208Z,5.23
2018-05-16T03:19:28.071Z,4.20
2018-05-16T03:21:55.836Z,4.37
2018-05-16T03:24:23.888Z,4.90
2018-05-16T03:26:51.532Z,4.70
2018-05-16T03:29:19.941Z,5.30
2018-05-16T03:31:47.797Z,4.93
2018-05-16T03:34:15.436Z,4.80
2018-05-16T03:36:43.836Z,4.53
2018-05-16T03:39:11.720Z,5.30
2018-05-16T03:41:39.484Z,5.23
2018-05-16T03:44:07.117Z,5.30
2018-05-16T03:46:34.941Z,5.00
2018-05-16T03:49:02.585Z,5.10
2018-05-16T03:51:30.231Z,4.47
2018-05-16T03:53:58.317Z,4.73
2018-05-16T03:56:25.948Z,4.80
2018-05-16T03:59:05.584Z,5.30
2018-05-16T04:01:45.249Z,4.67
2018-05-16T04:04:17.216Z,4.97
2018-05-16T04:06:44.873Z,5.00
2018-05-16T04:09:12.748Z,4.87
2018-05-16T04:11:40.608Z,4.87
2018-05-16T04:14:08.470Z,6.30
2018-05-16T04:16:36.117Z,5.50
2018-05-16T04:19:04.821Z,5.47
2018-05-16T04:21:32.486Z,5.70
2018-05-16T04:24:00.141Z,5.33
2018-05-16T04:26:29.524Z,5.80
2018-05-16T04:28:57.396Z,6.00
2018-05-16T04:31:25.133Z,5.13
2018-05-16T04:33:53.677Z,5.57
2018-05-16T04:36:21.325Z,5.57
2018-05-16T04:38:49.306Z,5.80
2018-05-16T04:41:17.000Z,5.40
2018-05-16T04:43:45.443Z,5.87
2018-05-16T04:46:13.104Z,5.57
2018-05-16T04:48:40.941Z,6.10
2018-05-16T04:51:08.581Z,5.73
2018-05-16T04:53:36.984Z,6.60
2018-05-16T04:56:04.668Z,6.20
2018-05-16T04:58:32.312Z,5.70
2018-05-16T05:01:00.122Z,5.60
2018-05-16T05:03:28.600Z,5.53
2018-05-16T05:05:56.257Z,5.30
2018-05-16T05:08:23.897Z,5.50
2018-05-16T05:10:51.736Z,5.60
2018-05-16T05:13:19.524Z,5.43
2018-05-16T05:15:47.177Z,5.87
2018-05-16T05:18:14.926Z,5.57
2018-05-16T05:20:43.301Z,5.43
2018-05-16T05:23:11.086Z,4.87
2018-05-16T05:25:38.962Z,4.93
2018-05-16T05:28:06.823Z,6.17
2018-05-16T05:30:34.660Z,4.77
2018-05-16T05:33:02.361Z,4.70
2018-05-16T05:35:30.214Z,5.20
2018-05-16T05:37:58.087Z,5.20
2018-05-16T05:40:25.781Z,4.47
2018-05-16T05:42:53.528Z,5.23
2018-05-16T05:45:21.379Z,4.70
2018-05-16T05:47:49.072Z,4.60
2018-05-16T05:50:17.475Z,4.57
2018-05-16T05:52:45.918Z,4.20
2018-05-16T05:55:16.056Z,4.30
2018-05-16T05:57:43.689Z,4.17
2018-05-16T06:00:12.097Z,4.77
2018-05-16T06:02:40.949Z,4.93
2018-05-16T06:05:08.815Z,4.30
2018-05-16T06:07:36.675Z,4.13
2018-05-16T06:10:04.549Z,4.53
2018-05-16T06:12:32.192Z,4.30
2018-05-16T06:14:59.967Z,4.60
2018-05-16T06:17:27.761Z,4.73
2018-05-16T06:19:55.514Z,3.97
2018-05-16T06:22:23.112Z,4.77
2018-05-16T06:24:51.732Z,4.47
2018-05-16T06:27:19.449Z,5.20
2018-05-16T06:29:46.908Z,4.17
2018-05-16T06:32:14.515Z,4.40
2018-05-16T06:34:42.092Z,4.10
2018-05-16T06:37:09.669Z,4.40
2018-05-16T06:39:37.428Z,4.17
2018-05-16T06:42:05.004Z,4.80
2018-05-16T06:44:33.344Z,4.30
2018-05-16T06:47:00.961Z,4.57
2018-05-16T06:49:29.304Z,4.23
2018-05-16T06:51:56.875Z,3.83
2018-05-16T06:54:24.600Z,4.47
2018-05-16T06:56:52.176Z,4.30
2018-05-16T06:59:19.768Z,11.67
2018-05-16T07:01:47.379Z,4.83
2018-05-16T07:04:14.957Z,4.87
2018-05-16T07:06:42.523Z,4.17
2018-05-16T07:09:10.141Z,4.13
2018-05-16T07:11:37.708Z,4.83
2018-05-16T07:14:05.275Z,5.00
2018-05-16T07:16:33.272Z,4.23
2018-05-16T07:19:00.848Z,3.70
2018-05-16T07:21:29.198Z,3.47
2018-05-16T07:23:56.807Z,4.33
2018-05-16T07:26:25.148Z,4.87
2018-05-16T07:28:52.727Z,4.03
2018-05-16T07:31:20.363Z,4.27
2018-05-16T07:33:47.940Z,4.00
2018-05-16T07:36:15.512Z,4.20
2018-05-16T07:38:44.069Z,4.03
2018-05-16T07:41:11.687Z,4.67
2018-05-16T07:43:39.252Z,4.80
2018-05-16T07:46:07.052Z,4.37
2018-05-16T07:48:34.619Z,3.90
2018-05-16T07:51:02.219Z,5.43
2018-05-16T07:53:29.840Z,4.30
2018-05-16T07:55:57.498Z,4.20
2018-05-16T07:58:25.780Z,4.33
2018-05-16T08:00:53.735Z,4.33
2018-05-16T08:03:21.319Z,4.73
2018-05-16T08:05:49.671Z,4.23
2018-05-16T08:08:17.296Z,4.70
2018-05-16T08:10:44.871Z,4.37
2018-05-16T08:13:12.447Z,4.77
2018-05-16T08:15:40.224Z,4.00
2018-05-16T08:18:07.796Z,4.17
2018-05-16T08:20:35.372Z,5.07
2018-05-16T08:23:03.916Z,4.50
2018-05-16T08:25:31.495Z,7.10
2018-05-16T08:27:59.067Z,3.90
2018-05-16T08:30:26.671Z,4.07
2018-05-16T08:32:54.248Z,4.00
2018-05-16T08:35:21.823Z,3.97
2018-05-16T08:37:49.453Z,3.97
2018-05-16T08:40:17.031Z,4.13
2018-05-16T08:42:44.611Z,4.50
2018-05-16T08:45:12.563Z,4.43
2018-05-16T08:47:40.137Z,3.90
2018-05-16T08:50:07.714Z,4.57
2018-05-16T08:52:36.476Z,4.60
2018-05-16T08:55:04.128Z,5.53
2018-05-16T08:57:31.699Z,3.80
2018-05-16T08:59:59.456Z,3.90
2018-05-16T09:02:27.033Z,3.50
2018-05-16T09:04:54.620Z,3.57
2018-05-16T09:07:23.103Z,3.57
2018-05-16T09:09:51.439Z,3.47
2018-05-16T09:12:19.008Z,3.07
2018-05-16T09:14:46.837Z,3.23
2018-05-16T09:17:14.420Z,4.17
2018-05-16T09:19:42.011Z,3.50
2018-05-16T09:22:09.620Z,3.17
2018-05-16T09:24:37.195Z,3.90
2018-05-16T09:27:04.796Z,3.13
2018-05-16T09:29:33.351Z,3.90
2018-05-16T09:32:00.943Z,4.80
2018-05-16T09:34:29.284Z,3.17
2018-05-16T09:36:56.938Z,3.20
2018-05-16T09:39:24.512Z,3.30
2018-05-16T09:41:52.156Z,3.40
2018-05-16T09:44:19.997Z,3.12
2018-05-16T09:46:47.632Z,3.10
2018-05-16T09:49:15.334Z,3.83
2018-05-16T09:51:44.233Z,3.47
2018-05-16T09:54:11.927Z,3.80
2018-05-16T09:56:40.357Z,3.70
2018-05-16T09:59:08.248Z,3.75
2018-05-16T10:01:35.863Z,3.78
2018-05-16T10:04:03.580Z,3.92
2018-05-16T10:06:31.293Z,3.03
2018-05-16T10:08:58.973Z,3.28
2018-05-16T10:11:26.563Z,3.05
2018-05-16T10:13:54.235Z,3.15
2018-05-16T10:16:22.604Z,2.62
2018-05-16T10:18:50.971Z,3.42
2018-05-16T10:21:18.856Z,2.93
2018-05-16T10:23:47.263Z,3.03
2018-05-16T10:26:15.619Z,3.00
2018-05-16T10:28:44.028Z,3.00
2018-05-16T10:31:11.621Z,2.78
2018-05-16T10:33:39.211Z,3.00
2018-05-16T10:36:06.852Z,2.67
2018-05-16T10:38:34.452Z,5.15
2018-05-16T10:41:02.811Z,2.60
2018-05-16T10:43:31.383Z,3.10
2018-05-16T10:45:58.983Z,3.00
2018-05-16T10:48:26.577Z,2.50
2018-05-16T10:50:54.479Z,3.22
2018-05-16T10:53:22.072Z,2.62
2018-05-16T10:55:49.668Z,2.70
2018-05-16T10:58:17.355Z,2.25
2018-05-16T11:00:44.955Z,2.53
2018-05-16T11:03:12.553Z,2.80
2018-05-16T11:05:41.815Z,2.25
2018-05-16T11:08:09.517Z,3.30
2018-05-16T11:10:37.169Z,2.42
2018-05-16T11:13:05.780Z,2.35
2018-05-16T11:15:33.385Z,2.70
2018-05-16T11:18:00.984Z,2.90
2018-05-16T11:20:28.628Z,2.65
2018-05-16T11:22:56.289Z,2.20
2018-05-16T11:25:23.952Z,2.28
2018-05-16T11:27:52.020Z,6.12
2018-05-16T11:30:19.627Z,2.87
2018-05-16T11:32:47.281Z,2.60
2018-05-16T11:35:15.774Z,3.30
2018-05-16T11:37:44.261Z,3.70
2018-05-16T11:40:12.686Z,2.50
2018-05-16T11:42:40.451Z,2.35
2018-05-16T11:45:08.335Z,2.22
2018-05-16T11:47:36.206Z,2.72
2018-05-16T11:50:04.869Z,2.83
2018-05-16T11:52:32.509Z,2.05
2018-05-16T11:55:00.165Z,2.60
2018-05-16T11:57:28.075Z,2.33
2018-05-16T11:59:55.753Z,2.50
2018-05-16T12:02:23.504Z,2.55
2018-05-16T12:04:51.377Z,2.20
2018-05-16T12:07:19.243Z,2.17
2018-05-16T12:09:47.104Z,2.78
2018-05-16T12:12:14.824Z,3.05
2018-05-16T12:14:42.592Z,2.42
2018-05-16T12:17:10.193Z,2.70
2018-05-16T12:19:38.136Z,3.17
2018-05-16T12:22:05.792Z,2.47
2018-05-16T12:24:33.688Z,2.90
2018-05-16T12:27:02.228Z,11.00
2018-05-16T12:29:29.889Z,2.70
2018-05-16T12:31:57.554Z,3.15
2018-05-16T12:34:25.277Z,2.92
2018-05-16T12:36:53.704Z,3.33
2018-05-16T12:39:21.413Z,2.50
2018-05-16T12:41:49.186Z,2.22
2018-05-16T12:44:17.612Z,2.15
2018-05-16T12:46:45.406Z,2.87
2018-05-16T12:49:13.576Z,2.70
2018-05-16T12:51:41.449Z,2.40
2018-05-16T12:54:09.129Z,3.33
2018-05-16T12:56:37.769Z,2.25
2018-05-16T12:59:05.433Z,2.95
2018-05-16T13:01:33.370Z,2.83
2018-05-16T13:04:01.291Z,6.37
2018-05-16T13:06:28.965Z,3.53
2018-05-16T13:08:56.819Z,2.20
2018-05-16T13:11:24.865Z,2.08
2018-05-16T13:13:52.524Z,1.98
2018-05-16T13:16:20.210Z,2.50
2018-05-16T13:18:48.082Z,3.08
2018-05-16T13:21:16.519Z,2.00
2018-05-16T13:23:44.324Z,1.92
2018-05-16T13:26:12.374Z,2.05
2018-05-16T13:28:40.033Z,2.47
2018-05-16T13:31:07.700Z,1.77
2018-05-16T13:33:35.564Z,2.03
2018-05-16T13:36:03.229Z,3.05
2018-05-16T13:38:30.917Z,2.58
2018-05-16T13:40:58.672Z,2.22
2018-05-16T13:43:26.339Z,2.12
2018-05-16T13:45:54.772Z,3.08
2018-05-16T13:48:22.677Z,2.20
2018-05-16T13:50:50.548Z,2.37
2018-05-16T13:53:18.235Z,3.05
2018-05-16T13:55:46.948Z,2.45
2018-05-16T13:58:14.609Z,4.65
2018-05-16T14:00:42.416Z,2.33
2018-05-16T14:03:10.265Z,2.08
2018-05-16T14:05:37.929Z,2.40
2018-05-16T14:08:05.609Z,2.03
2018-05-16T14:10:33.561Z,2.17
2018-05-16T14:13:01.221Z,2.10
2018-05-16T14:15:29.109Z,2.53
2018-05-16T14:17:57.080Z,2.00
2018-05-16T14:20:24.739Z,2.17
2018-05-16T14:22:53.032Z,2.47
2018-05-16T14:25:21.161Z,1.83
2018-05-16T14:27:48.819Z,2.20
2018-05-16T14:30:16.488Z,2.67
2018-05-16T14:32:44.216Z,5.12
2018-05-16T14:35:12.032Z,2.42
2018-05-16T14:37:39.705Z,2.08
2018-05-16T14:40:08.421Z,1.92
2018-05-16T14:42:36.173Z,2.40
2018-05-16T14:45:03.841Z,5.82
2018-05-16T14:47:32.482Z,1.95
2018-05-16T14:50:00.145Z,2.03
2018-05-16T14:52:28.024Z,2.75
2018-05-16T14:54:55.965Z,1.80
2018-05-16T14:57:23.629Z,1.95
2018-05-16T14:59:51.285Z,2.20
2018-05-16T15:02:19.365Z,1.85
2018-05-16T15:04:47.025Z,2.12
2018-05-16T15:07:14.684Z,1.95
2018-05-16T15:09:42.589Z,1.85
2018-05-16T15:12:10.446Z,1.92
2018-05-16T15:14:39.330Z,1.80
2018-05-16T15:17:07.703Z,2.08
2018-05-16T15:19:36.240Z,2.00
2018-05-16T15:22:03.911Z,1.90
2018-05-16T15:24:32.486Z,1.90
2018-05-16T15:27:01.019Z,2.30
2018-05-16T15:29:28.741Z,3.12
2018-05-16T15:31:56.445Z,2.00
2018-05-16T15:34:24.105Z,2.08
2018-05-16T15:36:51.966Z,2.08
2018-05-16T15:39:19.941Z,1.90
2018-05-16T15:41:47.801Z,2.20
2018-05-16T15:44:15.673Z,2.05
2018-05-16T15:46:43.456Z,2.22
2018-05-16T15:49:11.884Z,2.00
2018-05-16T15:51:39.548Z,2.47
2018-05-16T15:54:07.520Z,2.50
2018-05-16T15:56:35.415Z,1.90
2018-05-16T15:59:03.861Z,2.47
2018-05-16T16:01:31.733Z,3.22
2018-05-16T16:03:59.434Z,2.75
2018-05-16T16:06:27.133Z,2.30
2018-05-16T16:08:55.232Z,3.15
2018-05-16T16:11:23.020Z,2.93
2018-05-16T16:13:50.760Z,3.17
2018-05-16T16:16:19.193Z,2.30
2018-05-16T16:18:47.540Z,2.10
2018-05-16T16:21:15.221Z,1.97
2018-05-16T16:23:43.045Z,2.50
2018-05-16T16:26:10.697Z,2.30
2018-05-16T16:28:38.595Z,2.72
2018-05-16T16:31:06.772Z,4.43
2018-05-16T16:33:34.429Z,7.70
2018-05-16T16:36:02.292Z,14.93
2018-05-16T16:38:30.240Z,10.93
2018-05-16T16:40:57.909Z,9.18
2018-05-16T16:43:25.557Z,4.87
2018-05-16T16:45:53.324Z,7.30
2018-05-16T16:48:21.113Z,3.45
2018-05-16T16:50:48.985Z,2.87
2018-05-16T16:53:16.924Z,2.50
2018-05-16T16:55:44.820Z,2.70
2018-05-16T16:58:13.396Z,2.45
2018-05-16T17:00:41.450Z,2.92
2018-05-16T17:03:09.341Z,2.62
2018-05-16T17:05:37.016Z,2.70
2018-05-16T17:08:04.748Z,2.92
2018-05-16T17:10:32.419Z,2.60
2018-05-16T17:13:00.081Z,2.90
2018-05-16T17:15:28.261Z,2.62
2018-05-16T17:17:55.932Z,2.80
2018-05-16T17:20:23.591Z,3.20
2018-05-16T17:22:51.455Z,3.57
2018-05-16T17:25:19.316Z,3.00
2018-05-16T17:27:46.996Z,3.33
2018-05-16T17:30:15.062Z,3.33
2018-05-16T17:32:43.401Z,3.23
2018-05-16T17:35:11.045Z,3.23
2018-05-16T17:37:39.234Z,3.53
2018-05-16T17:40:06.910Z,3.73
2018-05-16T17:42:34.545Z,4.83
2018-05-16T17:45:03.172Z,3.50
2018-05-16T17:47:31.035Z,3.97
2018-05-16T17:49:58.688Z,5.27
2018-05-16T17:52:26.551Z,3.20
2018-05-16T17:54:54.326Z,2.80
2018-05-16T17:57:21.973Z,2.40
2018-05-16T17:59:50.677Z,2.40
2018-05-16T18:02:18.332Z,2.40
2018-05-16T18:04:46.005Z,2.53
2018-05-16T18:07:13.773Z,3.57
2018-05-16T18:09:41.425Z,3.10
2018-05-16T18:12:09.066Z,2.40
2018-05-16T18:14:59.556Z,2.00
2018-05-16T18:17:28.032Z,2.90
2018-05-16T18:19:55.681Z,2.83
2018-05-16T18:22:24.837Z,2.53
2018-05-16T18:24:52.485Z,2.93
2018-05-16T18:27:20.141Z,2.93
2018-05-16T18:29:47.841Z,2.60
2018-05-16T18:32:15.529Z,2.37
2018-05-16T18:34:43.229Z,2.20
2018-05-16T18:37:10.909Z,2.40
2018-05-16T18:39:38.637Z,2.70
2018-05-16T18:42:06.297Z,3.63
2018-05-16T18:44:34.000Z,3.40
2018-05-16T18:47:01.645Z,3.30
2018-05-16T18:49:29.341Z,2.77
2018-05-16T18:51:58.221Z,3.20
2018-05-16T18:54:25.873Z,2.60
2018-05-16T18:56:53.516Z,2.50
2018-05-16T18:59:21.212Z,2.70
2018-05-16T19:01:48.884Z,2.07
2018-05-16T19:04:17.341Z,2.60
2018-05-16T19:06:45.472Z,2.73
2018-05-16T19:09:13.112Z,3.27
2018-05-16T19:11:40.749Z,2.60
2018-05-16T19:14:08.437Z,3.37
2018-05-16T19:16:36.893Z,2.50
2018-05-16T19:19:05.371Z,2.80
2018-05-16T19:21:33.841Z,2.40
2018-05-16T19:24:01.485Z,2.20
2018-05-16T19:26:29.152Z,2.70
2018-05-16T19:28:56.854Z,2.70
2018-05-16T19:31:25.266Z,2.20
2018-05-16T19:33:52.954Z,2.50
2018-05-16T19:36:20.661Z,2.90
2018-05-16T19:38:49.078Z,2.43
2018-05-16T19:41:16.782Z,3.00
2018-05-16T19:43:45.566Z,3.10
2018-05-16T19:46:13.212Z,2.87
2018-05-16T19:48:40.861Z,2.90
2018-05-16T19:51:08.551Z,2.60
2018-05-16T19:53:36.197Z,2.50
2018-05-16T19:56:03.844Z,2.80
2018-05-16T19:58:33.016Z,2.50
2018-05-16T20:01:00.656Z,2.60
2018-05-16T20:03:29.061Z,2.63
2018-05-16T20:05:56.997Z,2.83
2018-05-16T20:08:25.404Z,2.60
2018-05-16T20:10:53.049Z,2.40
2018-05-16T20:13:20.959Z,2.53
2018-05-16T20:15:48.610Z,2.57
2018-05-16T20:18:16.260Z,2.40
2018-05-16T20:20:43.960Z,3.07
2018-05-16T20:23:11.664Z,4.10
2018-05-16T20:25:39.312Z,3.33
2018-05-16T20:28:08.081Z,5.03
2018-05-16T20:30:35.752Z,3.30
2018-05-16T20:33:04.233Z,5.50
2018-05-16T20:35:32.713Z,5.47
2018-05-16T20:38:00.402Z,4.30
2018-05-16T20:40:28.101Z,3.00
2018-05-16T20:42:55.925Z,3.37
2018-05-16T20:45:24.389Z,3.03
2018-05-16T20:47:52.022Z,2.60
2018-05-16T20:50:19.997Z,4.00
2018-05-16T20:52:47.660Z,2.93
2018-05-16T20:55:15.301Z,2.73
2018-05-16T20:57:43.124Z,2.67
2018-05-16T21:00:10.768Z,2.97
2018-05-16T21:02:39.221Z,2.93
2018-05-16T21:05:07.042Z,2.83
2018-05-16T21:07:35.484Z,3.03
2018-05-16T21:10:03.929Z,2.60
2018-05-16T21:12:32.039Z,3.03
2018-05-16T21:15:00.457Z,3.13
2018-05-16T21:17:28.089Z,3.23
2018-05-16T21:19:56.556Z,2.77
2018-05-16T21:22:24.205Z,2.90
2018-05-16T21:24:51.900Z,2.60
2018-05-16T21:27:19.662Z,2.67
2018-05-16T21:29:47.311Z,3.57
2018-05-16T21:32:15.765Z,2.97
2018-05-16T21:34:44.476Z,3.30
2018-05-16T21:37:12.170Z,3.07
2018-05-16T21:39:39.813Z,2.90
2018-05-16T21:42:08.313Z,2.93
2018-05-16T21:44:36.018Z,3.00
2018-05-16T21:47:04.460Z,3.07
2018-05-16T21:49:33.159Z,2.77
2018-05-16T21:52:00.845Z,3.10
2018-05-16T21:54:29.257Z,2.80
2018-05-16T21:56:57.934Z,2.90
2018-05-16T21:59:26.345Z,2.77
2018-05-16T22:01:54.037Z,2.70
2018-05-16T22:04:21.789Z,2.73
2018-05-16T22:06:49.367Z,3.03
2018-05-16T22:09:17.704Z,2.57
2018-05-16T22:11:45.524Z,2.90
2018-05-16T22:14:13.103Z,4.03
2018-05-16T22:16:41.448Z,4.60
2018-05-16T22:19:09.223Z,5.80
2018-05-16T22:21:36.811Z,4.30
2018-05-16T22:24:05.155Z,4.70
2018-05-16T22:26:32.999Z,4.43
2018-05-16T22:29:00.581Z,4.13
2018-05-16T22:31:33.719Z,3.90
2018-05-16T22:34:07.167Z,5.03
2018-05-16T22:36:40.320Z,4.00
2018-05-16T22:39:13.452Z,3.93
2018-05-16T22:41:46.589Z,3.77
2018-05-16T22:44:19.827Z,3.53
2018-05-16T22:46:47.408Z,3.10
2018-05-16T22:49:14.987Z,3.83
2018-05-16T22:51:43.375Z,3.10
2018-05-16T22:54:11.711Z,3.30
2018-05-16T22:56:39.287Z,3.83
2018-05-16T22:59:07.016Z,3.43
2018-05-16T23:01:34.608Z,3.10
2018-05-16T23:04:02.962Z,3.20
2018-05-16T23:06:30.707Z,3.40
2018-05-16T23:08:58.349Z,3.40
2018-05-16T23:11:25.936Z,3.43
2018-05-16T23:13:53.677Z,3.63
2018-05-16T23:16:21.373Z,3.10
2018-05-16T23:18:49.060Z,3.50
2018-05-16T23:21:17.893Z,3.70
2018-05-16T23:23:45.544Z,3.50
2018-05-16T23:26:13.185Z,3.53
2018-05-16T23:28:41.718Z,3.53
2018-05-16T23:31:09.365Z,3.37
2018-05-16T23:33:37.009Z,3.40
2018-05-16T23:36:04.705Z,3.10
2018-05-16T23:38:32.337Z,3.47
2018-05-16T23:41:00.026Z,3.60
2018-05-16T23:43:27.879Z,3.60
2018-05-16T23:45:55.520Z,3.53
2018-05-16T23:48:23.162Z,3.90
2018-05-16T23:50:51.700Z,3.63
2018-05-16T23:53:19.341Z,4.10
2018-05-16T23:55:47.124Z,3.60
2018-05-16T23:58:14.964Z,4.10
